createdAt,value
2022-11-12T00:00:12.381Z,54.43
2022-11-12T00:02:40.622Z,54.29
2022-11-12T00:05:09.648Z,54.32
2022-11-12T00:07:37.889Z,53.99
2022-11-12T00:10:07.394Z,54.20
2022-11-12T00:12:37.427Z,54.25
2022-11-12T00:15:06.920Z,54.04
2022-11-12T00:17:36.679Z,54.03
2022-11-12T00:20:06.357Z,53.97
2022-11-12T00:22:35.067Z,54.10
2022-11-12T00:25:04.854Z,53.85
2022-11-12T00:27:35.574Z,53.78
2022-11-12T00:30:14.335Z,53.84
2022-11-12T00:32:46.222Z,53.86
2022-11-12T00:35:20.229Z,53.71
2022-11-12T00:37:56.302Z,53.80
2022-11-12T00:40:34.464Z,53.72
2022-11-12T00:43:03.741Z,53.95
2022-11-12T00:45:39.625Z,53.73
2022-11-12T00:48:14.029Z,53.94
2022-11-12T00:50:48.325Z,53.76
2022-11-12T00:53:18.552Z,53.75
2022-11-12T00:55:50.784Z,53.93
2022-11-12T00:58:19.490Z,54.03
2022-11-12T01:00:52.164Z,53.57
2022-11-12T01:03:23.090Z,54.11
2022-11-12T01:05:54.435Z,53.95
2022-11-12T01:08:24.657Z,53.69
2022-11-12T01:13:50.211Z,53.82
2022-11-12T01:16:22.294Z,54.04
2022-11-12T01:18:56.804Z,53.93
2022-11-12T01:21:27.189Z,53.94
2022-11-12T01:24:04.429Z,53.96
2022-11-12T01:26:35.190Z,54.07
2022-11-12T01:29:35.087Z,54.26
2022-11-12T01:32:04.660Z,54.11
2022-11-12T01:34:35.284Z,54.16
2022-11-12T01:37:06.531Z,54.14
2022-11-12T01:39:34.810Z,54.20
2022-11-12T01:42:06.249Z,54.11
2022-11-12T01:44:37.299Z,54.18
2022-11-12T01:47:13.146Z,54.30
2022-11-12T01:49:53.193Z,54.27
2022-11-12T01:52:28.653Z,54.37
2022-11-12T01:55:02.435Z,54.06
2022-11-12T01:57:35.266Z,54.20
2022-11-12T02:00:10.574Z,53.89
2022-11-12T02:02:39.873Z,53.93
2022-11-12T02:05:12.042Z,53.86
2022-11-12T02:07:43.182Z,53.86
2022-11-12T02:10:11.771Z,53.93
2022-11-12T02:12:57.634Z,54.30
2022-11-12T02:15:27.162Z,54.17
2022-11-12T02:17:56.304Z,54.04
2022-11-12T02:20:27.850Z,54.20
2022-11-12T02:23:07.050Z,54.35
2022-11-12T02:25:42.432Z,54.35
2022-11-12T02:28:17.672Z,54.69
2022-11-12T02:30:55.062Z,54.50
2022-11-12T02:33:38.047Z,54.45
2022-11-12T02:36:10.100Z,54.84
2022-11-12T02:38:40.016Z,54.68
2022-11-12T02:41:08.399Z,54.78
2022-11-12T02:43:37.382Z,54.97
2022-11-12T02:46:06.687Z,55.21
2022-11-12T02:48:36.294Z,55.03
2022-11-12T02:51:07.800Z,55.13
2022-11-12T02:53:36.625Z,55.03
2022-11-12T02:56:08.575Z,55.23
2022-11-12T02:58:37.733Z,55.31
2022-11-12T03:01:06.759Z,55.48
2022-11-12T03:03:38.566Z,55.45
2022-11-12T03:06:14.916Z,55.54
2022-11-12T03:08:45.325Z,55.67
2022-11-12T03:11:18.213Z,56.01
2022-11-12T03:13:48.474Z,55.72
2022-11-12T03:16:17.012Z,55.74
2022-11-12T03:18:45.418Z,55.75
2022-11-12T03:21:14.382Z,55.87
2022-11-12T03:23:47.694Z,55.71
2022-11-12T03:26:17.485Z,55.73
2022-11-12T03:28:46.516Z,55.85
2022-11-12T03:31:15.507Z,55.88
2022-11-12T03:34:14.779Z,55.94
2022-11-12T03:36:46.579Z,55.89
2022-11-12T03:39:18.544Z,55.85
2022-11-12T03:42:19.554Z,56.42
2022-11-12T03:44:48.166Z,55.87
2022-11-12T03:47:17.424Z,56.13
2022-11-12T03:49:45.600Z,56.03
2022-11-12T03:52:13.913Z,56.04
2022-11-12T03:54:42.260Z,55.98
2022-11-12T03:57:12.374Z,56.03
2022-11-12T03:59:40.893Z,55.98
2022-11-12T04:02:14.649Z,56.16
2022-11-12T04:05:00.464Z,55.99
2022-11-12T04:07:49.349Z,55.88
2022-11-12T04:10:18.012Z,56.23
2022-11-12T04:13:05.564Z,56.16
2022-11-12T04:15:34.122Z,56.36
2022-11-12T04:18:20.095Z,56.37
2022-11-12T04:21:09.710Z,56.57
2022-11-12T04:23:37.957Z,56.58
2022-11-12T04:26:23.626Z,56.56
2022-11-12T04:29:10.698Z,56.70
2022-11-12T04:31:39.119Z,56.83
2022-11-12T04:34:21.276Z,56.80
2022-11-12T04:36:58.215Z,56.90
2022-11-12T04:39:26.882Z,57.05
2022-11-12T04:42:12.639Z,56.87
2022-11-12T04:45:01.532Z,56.84
2022-11-12T04:47:38.639Z,57.04
2022-11-12T04:50:10.886Z,57.40
2022-11-12T04:52:40.486Z,57.04
2022-11-12T04:55:14.119Z,57.04
2022-11-12T04:57:42.278Z,56.94
2022-11-12T05:00:15.348Z,56.96
2022-11-12T05:02:53.246Z,56.74
2022-11-12T05:05:31.088Z,56.83
2022-11-12T05:08:02.430Z,57.08
2022-11-12T05:10:32.013Z,57.04
2022-11-12T05:15:59.108Z,56.54
2022-11-12T05:18:27.711Z,56.50
2022-11-12T05:23:43.267Z,56.45
2022-11-12T05:26:11.424Z,56.50
2022-11-12T05:28:39.736Z,56.27
2022-11-12T05:31:31.964Z,56.34
2022-11-12T05:34:01.748Z,56.19
2022-11-12T05:36:30.152Z,56.25
2022-11-12T05:39:00.194Z,56.67
2022-11-12T05:41:45.006Z,56.49
2022-11-12T05:44:22.811Z,56.59
2022-11-12T05:46:54.062Z,56.64
2022-11-12T05:49:22.813Z,56.56
2022-11-12T05:51:51.588Z,56.73
2022-11-12T05:54:20.321Z,56.58
2022-11-12T05:56:50.577Z,56.41
2022-11-12T05:59:18.628Z,56.33
2022-11-12T06:01:47.026Z,56.35
2022-11-12T06:04:17.550Z,55.98
2022-11-12T06:06:46.222Z,56.26
2022-11-12T06:09:16.851Z,56.11
2022-11-12T06:11:44.896Z,56.34
2022-11-12T06:14:13.292Z,56.16
2022-11-12T06:16:41.780Z,56.26
2022-11-12T06:19:10.245Z,56.29
2022-11-12T06:21:40.413Z,55.97
2022-11-12T06:24:09.271Z,56.32
2022-11-12T06:26:38.187Z,56.31
2022-11-12T06:29:07.042Z,56.52
2022-11-12T06:31:42.113Z,56.45
2022-11-12T06:34:12.590Z,56.37
2022-11-12T06:36:42.656Z,56.53
2022-11-12T06:39:12.708Z,56.29
2022-11-12T06:41:44.089Z,56.63
2022-11-12T06:44:14.686Z,56.30
2022-11-12T06:46:47.316Z,56.58
2022-11-12T06:49:19.465Z,56.74
2022-11-12T06:54:38.607Z,56.69
2022-11-12T06:57:16.075Z,56.48
2022-11-12T07:02:48.781Z,56.90
2022-11-12T07:05:17.478Z,56.93
2022-11-12T07:07:49.057Z,56.94
2022-11-12T07:10:17.643Z,56.90
2022-11-12T07:12:56.012Z,56.83
2022-11-12T07:15:43.947Z,56.83
2022-11-12T07:21:20.299Z,56.70
2022-11-12T07:26:31.804Z,57.04
2022-11-12T07:29:00.400Z,57.07
2022-11-12T07:31:39.241Z,57.05
2022-11-12T07:34:14.845Z,57.16
2022-11-12T07:36:43.277Z,57.24
2022-11-12T07:39:13.393Z,57.15
2022-11-12T07:41:42.879Z,57.57
2022-11-12T07:44:11.006Z,57.31
2022-11-12T07:46:39.120Z,57.06
2022-11-12T07:49:07.215Z,57.26
2022-11-12T07:51:35.511Z,57.29
2022-11-12T07:54:04.376Z,57.83
2022-11-12T07:56:32.600Z,57.21
2022-11-12T07:59:02.400Z,57.45
2022-11-12T08:01:32.398Z,57.33
2022-11-12T08:04:01.222Z,57.13
2022-11-12T08:06:30.409Z,57.45
2022-11-12T08:08:59.909Z,57.52
2022-11-12T08:11:28.294Z,57.57
2022-11-12T08:13:56.630Z,57.86
2022-11-12T08:16:26.891Z,57.59
2022-11-12T08:18:56.903Z,58.07
2022-11-12T08:21:25.723Z,57.68
2022-11-12T08:23:54.205Z,57.67
2022-11-12T08:26:23.372Z,57.75
2022-11-12T08:28:51.658Z,57.70
2022-11-12T08:31:22.401Z,57.33
2022-11-12T08:33:52.191Z,57.64
2022-11-12T08:36:20.675Z,57.58
2022-11-12T08:38:48.982Z,57.92
2022-11-12T08:41:23.272Z,57.97
2022-11-12T08:43:54.336Z,57.90
2022-11-12T08:46:26.695Z,57.89
2022-11-12T08:48:56.647Z,57.75
2022-11-12T08:54:08.054Z,58.04
2022-11-12T08:56:37.433Z,57.90
2022-11-12T08:59:07.702Z,58.06
2022-11-12T09:01:36.372Z,57.84
2022-11-12T09:04:09.323Z,58.02
2022-11-12T09:06:43.150Z,57.77
2022-11-12T09:09:14.002Z,58.12
2022-11-12T09:11:45.668Z,57.81
2022-11-12T09:14:14.357Z,58.11
2022-11-12T09:16:49.672Z,57.80
2022-11-12T09:19:25.591Z,57.64
2022-11-12T09:22:04.701Z,57.97
2022-11-12T09:24:42.095Z,57.74
2022-11-12T09:27:15.322Z,57.61
2022-11-12T09:29:44.682Z,57.56
2022-11-12T09:32:16.010Z,57.64
2022-11-12T09:34:46.378Z,57.61
2022-11-12T09:37:28.669Z,57.77
2022-11-12T09:39:57.469Z,57.60
2022-11-12T09:42:30.847Z,57.49
2022-11-12T09:45:05.733Z,57.41
2022-11-12T09:47:39.688Z,57.49
2022-11-12T09:50:28.355Z,57.38
2022-11-12T09:53:04.006Z,57.67
2022-11-12T09:55:40.057Z,57.55
2022-11-12T09:58:19.854Z,57.50
2022-11-12T10:00:59.018Z,57.65
2022-11-12T10:03:39.480Z,57.54
2022-11-12T10:06:19.495Z,57.19
2022-11-12T10:09:20.785Z,57.41
2022-11-12T10:16:00.045Z,57.21
2022-11-12T10:18:52.513Z,57.28
2022-11-12T10:21:42.368Z,57.51
2022-11-12T10:24:15.350Z,57.08
2022-11-12T10:26:44.403Z,57.10
2022-11-12T10:29:24.231Z,57.08
2022-11-12T10:31:52.783Z,57.02
2022-11-12T10:34:46.481Z,57.07
2022-11-12T10:37:42.020Z,56.72
2022-11-12T10:40:36.249Z,57.25
2022-11-12T10:43:13.736Z,56.90
2022-11-12T10:45:45.420Z,56.91
2022-11-12T10:48:27.359Z,56.89
2022-11-12T10:50:56.574Z,56.63
2022-11-12T10:53:36.674Z,56.55
2022-11-12T10:56:22.604Z,56.53
2022-11-12T10:59:12.773Z,56.62
2022-11-12T11:01:45.490Z,56.57
2022-11-12T11:04:24.054Z,56.52
2022-11-12T11:07:01.999Z,56.47
2022-11-12T11:09:32.785Z,56.37
2022-11-12T11:12:02.241Z,56.41
2022-11-12T11:14:33.582Z,56.07
2022-11-12T11:17:08.673Z,55.91
2022-11-12T11:19:43.362Z,56.22
2022-11-12T11:22:38.890Z,56.07
2022-11-12T11:25:21.912Z,55.88
2022-11-12T11:28:09.226Z,55.56
2022-11-12T11:30:42.831Z,55.77
2022-11-12T11:33:27.689Z,55.46
2022-11-12T11:36:09.930Z,55.62
2022-11-12T11:38:53.423Z,55.72
2022-11-12T11:41:50.790Z,55.41
2022-11-12T11:44:28.555Z,55.40
2022-11-12T11:47:12.637Z,55.22
2022-11-12T11:50:08.055Z,55.40
2022-11-12T11:52:47.183Z,55.44
2022-11-12T11:55:29.796Z,55.32
2022-11-12T11:58:11.031Z,55.25
2022-11-12T12:00:48.909Z,54.85
2022-11-12T12:03:21.913Z,54.79
2022-11-12T12:06:12.368Z,54.64
2022-11-12T12:09:22.108Z,54.65
2022-11-12T12:12:03.806Z,54.42
2022-11-12T12:14:51.152Z,54.32
2022-11-12T12:17:32.135Z,54.29
2022-11-12T12:20:07.638Z,54.25
2022-11-12T12:22:40.214Z,54.23
2022-11-12T12:25:15.972Z,54.11
2022-11-12T12:27:52.966Z,53.92
2022-11-12T12:30:25.129Z,53.46
2022-11-12T12:32:58.805Z,53.56
2022-11-12T12:35:32.333Z,53.29
2022-11-12T12:38:13.659Z,52.73
2022-11-12T12:40:51.612Z,52.65
2022-11-12T12:43:28.707Z,52.44
2022-11-12T12:45:59.178Z,52.23
2022-11-12T12:48:31.954Z,52.13
2022-11-12T12:51:00.532Z,52.06
2022-11-12T12:53:43.587Z,51.97
2022-11-12T12:56:48.902Z,51.93
2022-11-12T12:59:24.693Z,51.76
2022-11-12T13:02:00.610Z,52.14
2022-11-12T13:04:55.362Z,51.93
2022-11-12T13:07:43.764Z,51.91
2022-11-12T13:10:52.788Z,52.16
2022-11-12T13:13:34.230Z,52.15
2022-11-12T13:16:03.742Z,51.87
2022-11-12T13:19:02.575Z,52.03
2022-11-12T13:21:31.464Z,51.92
2022-11-12T13:24:11.216Z,51.87
2022-11-12T13:26:49.996Z,51.65
2022-11-12T13:29:24.605Z,51.78
2022-11-12T13:32:30.478Z,51.57
2022-11-12T13:35:40.810Z,51.64
2022-11-12T13:38:16.033Z,51.69
2022-11-12T13:40:47.543Z,51.42
2022-11-12T13:43:27.709Z,51.26
2022-11-12T13:46:01.101Z,51.27
2022-11-12T13:48:32.192Z,51.48
2022-11-12T13:51:15.206Z,51.67
2022-11-12T13:53:43.801Z,51.57
2022-11-12T13:56:12.388Z,51.57
2022-11-12T13:58:41.602Z,51.33
2022-11-12T14:01:12.971Z,51.28
2022-11-12T14:04:03.006Z,50.76
2022-11-12T14:06:37.782Z,50.71
2022-11-12T14:13:18.039Z,50.96
2022-11-12T14:16:16.109Z,50.60
2022-11-12T14:19:12.031Z,51.85
2022-11-12T14:24:36.717Z,54.29
2022-11-12T14:27:51.975Z,53.65
2022-11-12T14:30:32.751Z,51.85
2022-11-12T14:33:10.164Z,51.29
2022-11-12T14:35:55.097Z,49.98
2022-11-12T14:38:33.422Z,48.33
2022-11-12T14:41:20.424Z,47.66
2022-11-12T14:44:10.952Z,46.35
2022-11-12T14:46:47.027Z,44.90
2022-11-12T14:49:23.355Z,43.30
2022-11-12T14:52:09.988Z,42.91
2022-11-12T14:54:44.407Z,42.58
2022-11-12T14:57:21.896Z,42.29
2022-11-12T14:59:50.822Z,42.69
2022-11-12T15:02:46.919Z,42.60
2022-11-12T15:05:17.092Z,43.13
2022-11-12T15:07:58.185Z,43.69
2022-11-12T15:10:36.884Z,43.83
2022-11-12T15:13:08.701Z,43.90
2022-11-12T15:15:39.936Z,44.52
2022-11-12T15:18:15.764Z,44.60
2022-11-12T15:20:44.028Z,44.88
2022-11-12T15:23:19.422Z,45.23
2022-11-12T15:25:59.262Z,45.35
2022-11-12T15:28:28.180Z,45.50
2022-11-12T15:31:04.007Z,45.89
2022-11-12T15:33:32.382Z,46.04
2022-11-12T15:36:02.493Z,46.18
2022-11-12T15:38:38.058Z,46.66
2022-11-12T15:41:08.368Z,46.50
2022-11-12T15:43:42.584Z,47.02
2022-11-12T15:46:15.290Z,46.87
2022-11-12T15:48:43.704Z,47.02
2022-11-12T15:51:12.578Z,47.32
2022-11-12T15:53:40.920Z,46.95
2022-11-12T15:56:17.477Z,46.90
2022-11-12T15:58:45.819Z,47.05
2022-11-12T16:01:14.305Z,47.46
2022-11-12T16:03:42.473Z,48.05
2022-11-12T16:06:13.864Z,48.08
2022-11-12T16:08:43.732Z,48.30
2022-11-12T16:11:28.587Z,48.53
2022-11-12T16:13:56.907Z,48.62
2022-11-12T16:16:25.218Z,48.78
2022-11-12T16:19:11.001Z,49.02
2022-11-12T16:21:39.869Z,49.20
2022-11-12T16:30:26.538Z,49.96
2022-11-12T16:32:55.092Z,50.22
2022-11-12T16:55:29.085Z,52.12
2022-11-12T16:58:35.719Z,52.17
2022-11-12T17:01:25.547Z,52.39
2022-11-12T17:04:07.259Z,52.64
2022-11-12T17:06:40.958Z,52.48
2022-11-12T17:09:15.841Z,52.85
2022-11-12T17:12:36.425Z,52.97
2022-11-12T17:15:16.606Z,53.25
2022-11-12T17:17:45.582Z,53.00
2022-11-12T18:02:06.438Z,54.51
2022-11-12T18:07:49.124Z,54.29
2022-11-12T18:10:19.646Z,54.63
2022-11-12T18:12:48.333Z,54.77
2022-11-12T18:15:17.105Z,54.72
2022-11-12T18:17:55.336Z,54.92
2022-11-12T18:20:23.805Z,54.99
2022-11-12T18:22:52.364Z,55.13
2022-11-12T18:25:20.593Z,55.13
2022-11-12T18:27:54.806Z,55.27
2022-11-12T18:30:23.777Z,55.04
2022-11-12T18:32:53.442Z,55.27
2022-11-12T18:35:25.839Z,55.41
2022-11-12T19:34:39.230Z,57.17
2022-11-12T19:39:44.441Z,57.12
2022-11-12T19:42:13.763Z,57.16
2022-11-12T19:50:31.237Z,57.53
2022-11-12T19:53:04.270Z,57.53
2022-11-12T19:55:51.977Z,57.47
2022-11-12T19:58:21.319Z,57.55
2022-11-12T20:01:04.141Z,57.35
2022-11-12T20:15:05.599Z,57.48
2022-11-12T20:17:34.626Z,57.60
2022-11-12T21:40:40.326Z,58.75
2022-11-12T21:43:09.180Z,58.42
2022-11-12T21:49:07.696Z,58.24
2022-11-12T21:51:54.215Z,58.61
2022-11-12T22:06:31.833Z,58.67
2022-11-12T22:09:00.248Z,58.97
2022-11-12T22:11:35.611Z,58.70
2022-11-12T22:14:04.390Z,58.67
2022-11-12T22:16:32.642Z,58.76
2022-11-12T22:19:02.959Z,58.82
2022-11-12T22:21:39.714Z,58.72
2022-11-12T22:24:09.685Z,58.76
2022-11-12T22:26:53.104Z,59.00
2022-11-12T22:29:21.725Z,58.80
2022-11-12T22:47:48.621Z,58.80
2022-11-12T22:50:22.492Z,58.75
2022-11-12T22:56:03.535Z,58.95
2022-11-12T23:01:10.789Z,58.77
2022-11-12T23:06:19.079Z,58.84
2022-11-12T23:08:51.589Z,59.12
2022-11-12T23:19:30.509Z,59.55
2022-11-12T23:21:58.713Z,59.03
2022-11-12T23:24:27.359Z,59.17
2022-11-12T23:27:07.312Z,59.30
2022-11-12T23:29:41.835Z,59.23
2022-11-12T23:32:16.422Z,59.45
2022-11-12T23:41:06.690Z,59.20
